Time;durP1;ratioP1;P1;durP2;ratioP2;P2;SDS_P1;SDS_P2;PMS_P1;PMS_P2;Temp;Humidity;BMP_temperature;BMP_pressure;BME280_temperature;BME280_humidity;BME280_pressure;Samples;Min_cycle;Max_cycle;Signal;HPM_P1;HPM_P2
2022/09/12 00:01:04;;;;;;;7.97;4.43;;;15.60;99.10;;;;;;4147469;28;20041;-83
2022/09/12 00:03:05;;;;;;;7.05;4.43;;;15.60;99.30;;;;;;4148129;28;20566;-83
2022/09/12 00:05:06;;;;;;;4.75;4.22;;;15.50;99.10;;;;;;4148160;28;20038;-83
2022/09/12 00:07:07;;;;;;;5.70;4.15;;;15.50;99.20;;;;;;4147711;28;20084;-83
2022/09/12 00:09:11;;;;;;;7.30;3.85;;;15.50;99.30;;;;;;4148044;28;20050;-83
2022/09/12 00:11:12;;;;;;;7.63;4.05;;;15.50;99.20;;;;;;4114397;28;20129;-83
2022/09/12 00:13:14;;;;;;;6.65;4.15;;;15.40;99.20;;;;;;4148058;28;20042;-82
2022/09/12 00:15:15;;;;;;;6.05;4.40;;;15.40;99.30;;;;;;4152827;28;20486;-82
2022/09/12 00:17:15;;;;;;;8.18;4.47;;;15.40;99.30;;;;;;4153796;28;20084;-83
2022/09/12 00:19:17;;;;;;;6.30;4.43;;;15.30;99.30;;;;;;4154052;28;20041;-83
2022/09/12 00:21:20;;;;;;;6.40;4.80;;;15.30;99.40;;;;;;4158092;28;20488;-83
2022/09/12 00:23:20;;;;;;;4.80;4.00;;;15.30;99.40;;;;;;4133032;28;20088;-83
2022/09/12 00:25:21;;;;;;;8.10;4.47;;;15.30;99.50;;;;;;4147941;28;20514;-83
2022/09/12 00:27:22;;;;;;;5.85;4.50;;;15.30;99.60;;;;;;4147900;28;20074;-82
2022/09/12 00:29:22;;;;;;;6.53;4.38;;;15.20;99.50;;;;;;4148016;28;20046;-83
2022/09/12 00:31:25;;;;;;;6.93;4.63;;;15.20;99.60;;;;;;4148129;28;20060;-83
2022/09/12 00:33:25;;;;;;;5.60;4.20;;;15.20;99.50;;;;;;4146898;28;20168;-84
2022/09/12 00:35:26;;;;;;;8.60;4.72;;;15.10;99.50;;;;;;4130006;28;20046;-83
2022/09/12 00:37:27;;;;;;;6.80;4.50;;;15.10;99.70;;;;;;4146688;28;20427;-83
2022/09/12 00:39:27;;;;;;;6.28;4.57;;;15.10;99.70;;;;;;4129048;28;20423;-84
2022/09/12 00:41:37;;;;;;;8.15;4.68;;;15.10;99.70;;;;;;4147576;28;20388;-84
2022/09/12 00:43:45;;;;;;;6.03;4.40;;;15.10;99.80;;;;;;4146136;28;20042;-84
2022/09/12 00:45:45;;;;;;;6.30;4.18;;;15.00;99.90;;;;;;4147002;28;20056;-84
2022/09/12 00:47:46;;;;;;;6.63;4.68;;;15.00;99.90;;;;;;4147833;28;20120;-83
2022/09/12 00:50:00;;;;;;;7.28;4.75;;;15.00;99.90;;;;;;4147388;28;20468;-82
2022/09/12 00:52:12;;;;;;;5.75;4.65;;;15.10;99.90;;;;;;4147517;28;20054;-82
2022/09/12 00:54:19;;;;;;;7.13;4.50;;;15.00;99.90;;;;;;4147064;28;20038;-83
2022/09/12 00:56:22;;;;;;;7.38;4.18;;;15.00;99.90;;;;;;4147470;28;20041;-83
2022/09/12 00:58:26;;;;;;;7.07;5.00;;;15.00;99.90;;;;;;4147517;28;20072;-83
2022/09/12 01:00:28;;;;;;;6.28;4.32;;;14.90;99.90;;;;;;4147297;28;20459;-84
2022/09/12 01:02:29;;;;;;;8.40;5.28;;;14.90;99.90;;;;;;4147289;28;20046;-84
2022/09/12 01:04:30;;;;;;;6.88;4.70;;;14.90;99.90;;;;;;4151972;28;20389;-84
2022/09/12 01:06:38;;;;;;;6.60;4.60;;;14.90;99.90;;;;;;4147790;28;20049;-84
2022/09/12 01:08:41;;;;;;;6.53;4.25;;;14.90;99.90;;;;;;4150237;28;20434;-84
2022/09/12 01:10:42;;;;;;;8.52;5.00;;;14.80;99.90;;;;;;4150649;28;20180;-83
2022/09/12 01:12:43;;;;;;;7.93;5.07;;;14.80;99.90;;;;;;4133438;28;20428;-84
2022/09/12 01:14:44;;;;;;;7.45;5.05;;;14.80;99.90;;;;;;4150568;28;20084;-84
2022/09/12 01:16:46;;;;;;;8.05;4.82;;;14.70;99.90;;;;;;4151612;28;20107;-83
2022/09/12 01:19:20;;;;;;;5.68;4.28;;;14.70;99.90;;;;;;4117348;28;20047;-84
2022/09/12 01:21:36;;;;;;;8.27;5.30;;;14.70;99.90;;;;;;4149994;28;20053;-83
2022/09/12 01:23:42;;;;;;;10.15;5.30;;;14.70;99.90;;;;;;4133722;28;20101;-83
2022/09/12 01:25:52;;;;;;;6.60;4.90;;;14.70;99.90;;;;;;4151469;28;20049;-83
2022/09/12 01:28:06;;;;;;;6.05;4.75;;;14.70;99.90;;;;;;4151670;28;20124;-83
2022/09/12 01:30:30;;;;;;;7.97;5.47;;;14.60;99.90;;;;;;4149605;28;20046;-83
2022/09/12 01:33:06;;;;;;;7.80;5.00;;;14.60;99.90;;;;;;4134189;28;20471;-83
2022/09/12 01:35:31;;;;;;;6.63;5.13;;;14.60;99.90;;;;;;4085553;29;20056;-83
2022/09/12 01:38:06;;;;;;;6.50;5.07;;;14.50;99.90;;;;;;4151531;28;20046;-83
2022/09/12 01:40:24;;;;;;;7.45;5.00;;;14.50;99.90;;;;;;4147913;28;20381;-83
2022/09/12 01:43:27;;;;;;;8.40;4.60;;;14.60;99.90;;;;;;4151227;28;20092;-83
2022/09/12 01:45:42;;;;;;;8.32;5.25;;;14.60;99.90;;;;;;4116053;28;20059;-83
2022/09/12 01:47:55;;;;;;;7.50;5.30;;;14.50;99.90;;;;;;4138892;28;20050;-83
2022/09/12 01:50:26;;;;;;;8.82;5.53;;;14.50;99.90;;;;;;4150287;28;20045;-83
2022/09/12 01:52:50;;;;;;;8.75;5.43;;;14.50;99.90;;;;;;4150527;28;20046;-84
2022/09/12 01:55:03;;;;;;;10.30;6.15;;;14.40;99.90;;;;;;4118770;28;20055;-84
2022/09/12 01:57:11;;;;;;;7.22;5.60;;;14.40;99.90;;;;;;4166929;28;20042;-84
2022/09/12 01:59:30;;;;;;;9.05;6.18;;;14.40;99.90;;;;;;4166254;28;20132;-83
2022/09/12 02:01:35;;;;;;;10.18;6.45;;;14.40;99.90;;;;;;4166105;28;20481;-83
2022/09/12 02:03:59;;;;;;;9.73;6.55;;;14.30;99.90;;;;;;4166458;28;20471;-83
2022/09/12 02:06:07;;;;;;;10.52;6.60;;;14.30;99.90;;;;;;4166187;28;20041;-84
2022/09/12 02:08:27;;;;;;;13.43;6.80;;;14.30;99.90;;;;;;4166354;28;20049;-84
2022/09/12 02:10:33;;;;;;;10.35;6.55;;;14.30;99.90;;;;;;4166216;28;20072;-84
2022/09/12 02:12:41;;;;;;;13.48;7.43;;;14.30;99.90;;;;;;4147812;28;20041;-82
2022/09/12 02:14:48;;;;;;;9.30;7.68;;;14.30;99.90;;;;;;4148443;28;20059;-83
2022/09/12 02:17:13;;;;;;;11.68;7.20;;;14.20;99.90;;;;;;4166242;28;20537;-84
2022/09/12 02:19:17;;;;;;;11.55;7.60;;;14.20;99.90;;;;;;4160180;28;20038;-83
2022/09/12 02:21:20;;;;;;;14.18;8.05;;;14.20;99.90;;;;;;4149581;28;20044;-84
2022/09/12 02:23:28;;;;;;;12.77;7.82;;;14.20;99.90;;;;;;4149743;28;20065;-84
2022/09/12 02:25:29;;;;;;;13.43;8.02;;;14.10;99.90;;;;;;4149624;28;20054;-83
2022/09/12 02:27:40;;;;;;;12.40;8.18;;;14.10;99.90;;;;;;4149681;28;20049;-83
2022/09/12 02:29:42;;;;;;;11.52;7.50;;;14.10;99.90;;;;;;4131454;28;20132;-83
2022/09/12 02:32:07;;;;;;;11.05;8.05;;;14.10;99.90;;;;;;4131621;28;20054;-83
2022/09/12 02:34:19;;;;;;;10.13;7.55;;;14.10;99.90;;;;;;4131314;28;20054;-83
2022/09/12 02:36:43;;;;;;;13.13;8.25;;;14.10;99.90;;;;;;4149319;28;20041;-83
2022/09/12 02:38:46;;;;;;;13.32;8.65;;;14.10;99.90;;;;;;4149331;28;20046;-83
2022/09/12 02:40:47;;;;;;;11.75;8.50;;;14.00;99.90;;;;;;4149070;28;20514;-83
2022/09/12 02:42:49;;;;;;;11.82;8.15;;;14.00;99.90;;;;;;4149426;28;20456;-83
2022/09/12 02:44:54;;;;;;;12.35;8.73;;;14.00;99.90;;;;;;4149131;28;20058;-83
2022/09/12 02:47:09;;;;;;;13.30;8.32;;;13.90;99.90;;;;;;4149402;28;20057;-83
2022/09/12 02:49:10;;;;;;;15.95;9.20;;;13.90;99.90;;;;;;4149908;28;20148;-83
2022/09/12 02:51:11;;;;;;;13.88;9.23;;;13.90;99.90;;;;;;4149509;28;20046;-83
2022/09/12 02:53:12;;;;;;;12.43;8.98;;;13.90;99.90;;;;;;4148719;28;20161;-83
2022/09/12 02:55:14;;;;;;;16.20;9.50;;;13.90;99.90;;;;;;4148088;28;20066;-84
2022/09/12 02:57:20;;;;;;;15.90;9.63;;;13.90;99.90;;;;;;4131867;28;20050;-83
2022/09/12 02:59:23;;;;;;;13.43;9.63;;;13.80;99.90;;;;;;4149575;28;20085;-83
2022/09/12 03:02:01;;;;;;;13.73;9.75;;;13.80;99.90;;;;;;4149222;28;20042;-83
2022/09/12 03:04:30;;;;;;;14.13;10.03;;;13.80;99.90;;;;;;4149351;28;20045;-83
2022/09/12 03:06:59;;;;;;;14.35;10.05;;;13.80;99.90;;;;;;4148762;28;20647;-82
2022/09/12 03:09:16;;;;;;;17.40;10.80;;;13.80;99.90;;;;;;4131552;28;20147;-83
2022/09/12 03:11:27;;;;;;;16.85;11.25;;;13.70;99.90;;;;;;4131942;28;20046;-83
2022/09/12 03:13:48;;;;;;;14.85;10.15;;;13.70;99.90;;;;;;4148896;28;20427;-83
2022/09/12 03:16:13;;;;;;;41.40;12.63;;;13.70;99.90;;;;;;4148919;28;20041;-83
2022/09/12 03:18:31;;;;;;;17.23;11.02;;;13.70;99.90;;;;;;4130944;28;20074;-83
2022/09/12 03:20:49;;;;;;;17.77;11.32;;;13.70;99.90;;;;;;4150300;28;20438;-83
2022/09/12 03:22:57;;;;;;;17.83;11.85;;;13.70;99.90;;;;;;4151173;28;20096;-83
2022/09/12 03:25:13;;;;;;;20.70;11.40;;;13.60;99.90;;;;;;4150170;28;20053;-82
2022/09/12 03:27:32;;;;;;;19.15;13.13;;;13.60;99.90;;;;;;4148905;28;20364;-83
2022/09/12 03:29:33;;;;;;;19.50;12.68;;;13.60;99.90;;;;;;4149324;28;20052;-82
2022/09/12 03:31:34;;;;;;;21.20;13.18;;;13.60;99.90;;;;;;4147740;28;20046;-82
2022/09/12 03:33:34;;;;;;;19.30;12.75;;;13.60;99.90;;;;;;4131309;28;20050;-82
2022/09/12 03:35:35;;;;;;;21.70;12.93;;;13.60;99.90;;;;;;4133777;28;20394;-82
2022/09/12 03:37:37;;;;;;;18.85;13.80;;;13.60;99.90;;;;;;4154017;28;20045;-81
2022/09/12 03:39:37;;;;;;;24.77;13.80;;;13.60;99.90;;;;;;4153646;28;20073;-82
2022/09/12 03:41:38;;;;;;;23.63;12.73;;;13.60;99.90;;;;;;4155085;28;20105;-83
2022/09/12 03:43:39;;;;;;;21.05;13.25;;;13.60;99.90;;;;;;4154493;28;20049;-83
2022/09/12 03:45:40;;;;;;;19.70;13.10;;;13.60;99.90;;;;;;4149167;28;20054;-82
2022/09/12 03:47:41;;;;;;;23.90;14.45;;;13.60;99.90;;;;;;4148418;28;20573;-83
2022/09/12 03:49:41;;;;;;;21.60;13.82;;;13.60;99.90;;;;;;4148481;28;20045;-83
2022/09/12 03:51:42;;;;;;;22.95;14.18;;;13.60;99.90;;;;;;4148014;28;20088;-83
2022/09/12 03:53:43;;;;;;;23.90;14.93;;;13.50;99.90;;;;;;4147252;28;20183;-82
2022/09/12 03:55:44;;;;;;;23.45;14.77;;;13.50;99.90;;;;;;4130334;28;20046;-83
2022/09/12 03:57:45;;;;;;;22.85;14.35;;;13.50;99.90;;;;;;4148301;28;20463;-83
2022/09/12 03:59:48;;;;;;;24.42;15.55;;;13.50;99.90;;;;;;4148061;28;20049;-83
2022/09/12 04:01:49;;;;;;;22.65;15.13;;;13.50;99.90;;;;;;4114498;28;20076;-83
2022/09/12 04:03:51;;;;;;;22.88;15.45;;;13.50;99.90;;;;;;4148192;28;20081;-83
2022/09/12 04:05:51;;;;;;;26.17;16.00;;;13.50;99.90;;;;;;4147665;28;20049;-83
2022/09/12 04:07:52;;;;;;;27.13;17.17;;;13.50;99.90;;;;;;4151268;28;20516;-83
2022/09/12 04:09:53;;;;;;;25.02;15.48;;;12.90;99.90;;;;;;4146857;28;20046;-83
2022/09/12 04:11:54;;;;;;;25.85;16.35;;;13.50;99.90;;;;;;4145996;28;20502;-83
2022/09/12 04:13:55;;;;;;;28.23;16.30;;;13.50;99.90;;;;;;4130674;28;20050;-83
2022/09/12 04:15:57;;;;;;;28.98;16.27;;;13.50;99.90;;;;;;4147414;28;20045;-83
2022/09/12 04:17:58;;;;;;;27.58;15.98;;;13.50;99.90;;;;;;4130157;28;20129;-83
2022/09/12 04:19:58;;;;;;;27.15;15.95;;;13.40;99.90;;;;;;4130497;28;20050;-82
2022/09/12 04:21:59;;;;;;;25.83;15.35;;;13.40;99.90;;;;;;4147984;28;20045;-83
2022/09/12 04:24:00;;;;;;;26.38;15.40;;;13.40;99.90;;;;;;4130520;28;20054;-84
2022/09/12 04:26:02;;;;;;;27.40;16.25;;;13.50;99.90;;;;;;4147963;28;20104;-82
2022/09/12 04:28:03;;;;;;;24.90;14.85;;;13.40;99.90;;;;;;4129698;28;20073;-82
2022/09/12 04:30:04;;;;;;;25.13;15.82;;;13.40;99.90;;;;;;4130408;28;20133;-83
2022/09/12 04:32:05;;;;;;;24.27;15.45;;;13.50;99.90;;;;;;4147890;28;20534;-82
2022/09/12 04:34:06;;;;;;;22.88;14.80;;;13.50;99.90;;;;;;4147794;28;20045;-82
2022/09/12 04:36:15;;;;;;;25.73;14.73;;;13.50;99.90;;;;;;4147771;28;20050;-82
2022/09/12 04:38:16;;;;;;;23.25;15.38;;;13.50;99.90;;;;;;4147783;28;20030;-82
2022/09/12 04:40:17;;;;;;;26.70;17.42;;;13.40;99.90;;;;;;4147597;28;20057;-83
2022/09/12 04:42:18;;;;;;;28.10;17.52;;;13.50;99.90;;;;;;4146343;28;20057;-83
2022/09/12 04:44:19;;;;;;;28.95;17.33;;;13.50;99.90;;;;;;4128797;28;20465;-82
2022/09/12 04:46:20;;;;;;;27.65;17.80;;;13.40;99.90;;;;;;4146653;28;20065;-82
2022/09/12 04:48:21;;;;;;;28.35;18.52;;;13.50;99.90;;;;;;4145942;28;20407;-83
2022/09/12 04:50:22;;;;;;;30.35;17.05;;;13.50;99.90;;;;;;4146605;28;20058;-83
2022/09/12 04:52:23;;;;;;;32.03;18.23;;;13.40;99.90;;;;;;4146888;28;20045;-83
2022/09/12 04:54:24;;;;;;;27.42;17.23;;;13.50;99.90;;;;;;4147167;28;20488;-82
2022/09/12 04:56:26;;;;;;;30.88;18.08;;;13.50;99.90;;;;;;4148434;28;20119;-82
2022/09/12 04:58:26;;;;;;;33.55;17.50;;;13.50;99.90;;;;;;4147931;28;20053;-84
2022/09/12 05:00:27;;;;;;;29.08;16.92;;;13.50;99.90;;;;;;4113700;28;20049;-83
2022/09/12 05:02:28;;;;;;;31.42;19.10;;;13.60;99.90;;;;;;4146399;28;20050;-84
2022/09/12 05:04:30;;;;;;;26.17;16.40;;;13.60;99.90;;;;;;4146944;28;20500;-83
2022/09/12 05:06:33;;;;;;;26.75;17.80;;;13.60;99.90;;;;;;4147585;28;20038;-84
2022/09/12 05:08:34;;;;;;;26.73;17.15;;;13.70;99.90;;;;;;4147505;28;20133;-84
2022/09/12 05:10:35;;;;;;;31.58;18.10;;;13.70;99.90;;;;;;4147504;28;20112;-85
2022/09/12 05:12:35;;;;;;;27.58;17.58;;;13.70;99.90;;;;;;4147266;28;20041;-85
2022/09/12 05:14:36;;;;;;;29.08;17.80;;;13.70;99.90;;;;;;4147121;28;20430;-83
2022/09/12 05:16:37;;;;;;;34.95;19.73;;;13.70;99.90;;;;;;4147708;28;20053;-82
2022/09/12 05:18:38;;;;;;;30.92;17.90;;;13.80;99.90;;;;;;4147282;28;20038;-84
2022/09/12 05:20:39;;;;;;;31.88;19.67;;;13.80;99.90;;;;;;4147141;28;20096;-82
2022/09/12 05:22:39;;;;;;;32.42;19.35;;;13.80;99.90;;;;;;4113313;28;20541;-81
2022/09/12 05:24:42;;;;;;;29.55;18.08;;;13.90;99.90;;;;;;4147240;28;20393;-82
2022/09/12 05:26:43;;;;;;;32.05;18.27;;;13.90;99.90;;;;;;4147306;28;20399;-82
2022/09/12 05:28:43;;;;;;;32.75;19.10;;;13.90;99.90;;;;;;4130125;28;20046;-83
2022/09/12 05:30:44;;;;;;;36.20;18.42;;;13.90;99.90;;;;;;4147134;28;20073;-82
2022/09/12 05:32:45;;;;;;;33.13;19.17;;;13.90;99.90;;;;;;4147265;28;20478;-84
2022/09/12 05:34:46;;;;;;;34.88;18.90;;;14.00;99.90;;;;;;4129275;28;20050;-81
2022/09/12 05:36:47;;;;;;;30.63;17.98;;;14.00;99.90;;;;;;4147133;28;20077;-81
2022/09/12 05:38:47;;;;;;;29.02;18.13;;;14.00;99.90;;;;;;4147280;28;20104;-83
2022/09/12 05:40:48;;;;;;;28.83;17.52;;;14.10;99.90;;;;;;4147015;28;20488;-80
2022/09/12 05:42:49;;;;;;;27.92;16.40;;;14.10;99.90;;;;;;4146842;28;20492;-80
2022/09/12 05:44:49;;;;;;;31.10;17.38;;;14.10;99.90;;;;;;4146377;28;20507;-80
2022/09/12 05:46:52;;;;;;;26.77;16.02;;;14.10;99.90;;;;;;4147081;28;20084;-80
2022/09/12 05:48:54;;;;;;;30.08;16.65;;;14.10;99.90;;;;;;4147195;28;20539;-80
2022/09/12 05:51:00;;;;;;;28.98;16.30;;;14.20;99.90;;;;;;4146477;28;20088;-80
2022/09/12 05:53:00;;;;;;;31.85;16.75;;;14.20;99.90;;;;;;4146302;28;20045;-79
2022/09/12 05:55:02;;;;;;;27.92;15.63;;;14.30;99.90;;;;;;4149087;28;20050;-80
2022/09/12 05:57:03;;;;;;;27.08;15.93;;;14.30;99.90;;;;;;4149582;28;20046;-80
2022/09/12 05:59:06;;;;;;;28.27;15.45;;;14.30;99.90;;;;;;4131988;28;20085;-80
2022/09/12 06:01:11;;;;;;;27.27;14.57;;;14.30;99.90;;;;;;4131180;28;20508;-80
2022/09/12 06:03:11;;;;;;;28.02;15.68;;;14.30;99.90;;;;;;4149285;28;20495;-80
2022/09/12 06:05:12;;;;;;;27.40;15.23;;;14.50;99.90;;;;;;4148949;28;20049;-80
2022/09/12 06:07:13;;;;;;;27.15;15.23;;;14.40;99.90;;;;;;4148671;28;20573;-81
2022/09/12 06:09:15;;;;;;;26.63;16.15;;;14.40;99.90;;;;;;4149466;28;20049;-82
2022/09/12 06:11:21;;;;;;;26.33;14.85;;;14.40;99.90;;;;;;4148934;28;20052;-82
2022/09/12 06:13:22;;;;;;;32.22;15.90;;;14.40;99.90;;;;;;4149215;28;20484;-81
2022/09/12 06:15:23;;;;;;;30.75;16.02;;;14.50;99.90;;;;;;4148915;28;20038;-81
2022/09/12 06:17:23;;;;;;;33.10;16.23;;;14.50;99.90;;;;;;4148899;28;20204;-81
2022/09/12 06:19:26;;;;;;;30.48;15.82;;;14.50;99.90;;;;;;4148643;28;20049;-81
2022/09/12 06:21:29;;;;;;;29.10;15.75;;;14.60;99.90;;;;;;4148887;28;20053;-81
2022/09/12 06:23:30;;;;;;;29.45;15.82;;;14.60;99.90;;;;;;4148999;28;20593;-81
2022/09/12 06:25:31;;;;;;;28.23;14.88;;;14.70;99.90;;;;;;4148114;28;20042;-81
2022/09/12 06:27:31;;;;;;;29.50;16.33;;;14.70;99.90;;;;;;4148858;28;20145;-81
2022/09/12 06:29:32;;;;;;;28.63;15.73;;;14.80;99.90;;;;;;4131548;28;20046;-81
2022/09/12 06:31:35;;;;;;;26.40;14.38;;;14.80;99.90;;;;;;4148662;28;20399;-82
2022/09/12 06:33:41;;;;;;;26.75;15.63;;;14.80;99.90;;;;;;4131570;28;20050;-80
2022/09/12 06:35:42;;;;;;;28.42;15.23;;;14.80;99.90;;;;;;4149145;28;20099;-81
2022/09/12 06:37:44;;;;;;;30.80;16.52;;;14.90;99.90;;;;;;4148531;28;20128;-82
2022/09/12 06:39:45;;;;;;;30.50;15.50;;;14.90;99.90;;;;;;4147671;28;20049;-80
2022/09/12 06:41:50;;;;;;;26.35;15.45;;;15.00;99.90;;;;;;4148448;28;20053;-81
2022/09/12 06:43:52;;;;;;;29.45;15.50;;;15.00;99.90;;;;;;4131289;28;20563;-80
2022/09/12 06:45:52;;;;;;;28.70;15.27;;;15.00;99.90;;;;;;4148329;28;20053;-80
2022/09/12 06:47:54;;;;;;;26.27;15.45;;;15.00;99.90;;;;;;4146330;28;20050;-82
2022/09/12 06:49:55;;;;;;;33.03;16.50;;;15.10;99.90;;;;;;4147235;28;20041;-81
2022/09/12 06:51:55;;;;;;;30.73;16.73;;;15.10;99.90;;;;;;4148591;28;20101;-81
2022/09/12 06:53:56;;;;;;;36.53;16.42;;;15.10;99.90;;;;;;4147557;28;20050;-81
2022/09/12 06:55:59;;;;;;;31.70;16.75;;;15.20;99.90;;;;;;4129791;28;20132;-82
2022/09/12 06:58:00;;;;;;;36.95;17.02;;;15.20;99.90;;;;;;4148500;28;20099;-81
2022/09/12 07:00:04;;;;;;;32.67;16.30;;;15.20;99.90;;;;;;4147729;28;20104;-81
2022/09/12 07:02:05;;;;;;;33.22;17.77;;;15.20;99.90;;;;;;4148014;28;20053;-81
2022/09/12 07:04:06;;;;;;;37.60;18.70;;;15.30;99.90;;;;;;4147810;28;20400;-81
2022/09/12 07:06:09;;;;;;;30.13;17.65;;;15.20;99.90;;;;;;4147929;28;20120;-82
2022/09/12 07:08:10;;;;;;;43.90;18.98;;;15.30;99.90;;;;;;4148332;28;20487;-82
2022/09/12 07:10:11;;;;;;;36.75;19.88;;;15.30;99.90;;;;;;4148334;28;20038;-82
2022/09/12 07:12:11;;;;;;;33.05;18.38;;;15.30;99.90;;;;;;4148189;28;20125;-82
2022/09/12 07:14:13;;;;;;;39.50;18.15;;;15.30;99.90;;;;;;4147795;28;20045;-81
2022/09/12 07:16:15;;;;;;;41.97;19.23;;;15.30;99.90;;;;;;4148141;28;20073;-81
2022/09/12 07:18:16;;;;;;;38.58;20.30;;;15.40;99.90;;;;;;4130434;28;20047;-81
2022/09/12 07:20:17;;;;;;;40.67;20.63;;;15.40;99.90;;;;;;4148174;28;20064;-81
2022/09/12 07:22:17;;;;;;;39.40;19.75;;;15.50;99.90;;;;;;4148109;28;20045;-81
2022/09/12 07:24:18;;;;;;;40.75;19.48;;;15.50;99.90;;;;;;4148109;28;20048;-81
2022/09/12 07:26:19;;;;;;;38.28;18.60;;;15.60;99.90;;;;;;4147997;28;20480;-81
2022/09/12 07:28:20;;;;;;;39.88;20.50;;;15.60;99.90;;;;;;4147768;28;20057;-81
2022/09/12 07:30:21;;;;;;;40.92;19.67;;;15.70;99.90;;;;;;4147562;28;20403;-81
2022/09/12 07:32:22;;;;;;;36.17;18.20;;;15.70;99.90;;;;;;4147894;28;20053;-81
2022/09/12 07:34:23;;;;;;;38.10;19.17;;;15.70;99.90;;;;;;4147881;28;20050;-81
2022/09/12 07:36:24;;;;;;;41.78;20.27;;;15.80;99.90;;;;;;4147302;28;20048;-82
2022/09/12 07:38:25;;;;;;;45.03;20.77;;;15.90;99.90;;;;;;4147784;28;20038;-81
2022/09/12 07:40:26;;;;;;;41.05;19.45;;;15.90;99.90;;;;;;4150796;28;20047;-82
2022/09/12 07:42:26;;;;;;;41.10;20.27;;;16.00;99.90;;;;;;4154188;28;20497;-81
2022/09/12 07:44:28;;;;;;;40.97;21.52;;;16.00;99.90;;;;;;4156664;28;20126;-82
2022/09/12 07:46:30;;;;;;;44.75;20.83;;;16.10;99.90;;;;;;4147588;28;20136;-81
2022/09/12 07:48:31;;;;;;;39.60;19.88;;;16.20;99.90;;;;;;4130263;28;20042;-81
2022/09/12 07:50:32;;;;;;;48.30;22.50;;;16.20;99.90;;;;;;4162799;28;20052;-81
2022/09/12 07:52:33;;;;;;;43.40;20.88;;;16.20;99.90;;;;;;4163484;28;20124;-81
2022/09/12 07:54:33;;;;;;;41.78;19.73;;;16.20;99.90;;;;;;4164154;28;20049;-81
2022/09/12 07:56:34;;;;;;;45.17;21.40;;;16.20;99.90;;;;;;4164604;28;20045;-81
2022/09/12 07:58:36;;;;;;;42.75;21.42;;;16.30;99.90;;;;;;4149106;28;20045;-81
2022/09/12 08:00:37;;;;;;;41.13;21.48;;;16.30;99.90;;;;;;4147886;28;20052;-81
2022/09/12 08:02:38;;;;;;;44.80;21.35;;;16.40;99.90;;;;;;4146829;28;20476;-81
2022/09/12 08:04:40;;;;;;;50.42;21.95;;;16.40;99.90;;;;;;4147561;28;20516;-81
2022/09/12 08:06:41;;;;;;;47.88;22.58;;;16.50;99.90;;;;;;4147196;28;20041;-82
2022/09/12 08:08:42;;;;;;;41.33;20.35;;;16.50;99.90;;;;;;4147522;28;20403;-82
2022/09/12 08:10:43;;;;;;;45.67;21.05;;;16.50;99.90;;;;;;4147493;28;20042;-82
2022/09/12 08:12:44;;;;;;;40.58;20.70;;;16.50;99.90;;;;;;4148088;28;20046;-82
2022/09/12 08:14:45;;;;;;;44.70;21.85;;;16.60;99.90;;;;;;4130702;28;20053;-82
2022/09/12 08:16:46;;;;;;;43.58;20.63;;;16.60;99.90;;;;;;4147154;28;20046;-81
2022/09/12 08:18:48;;;;;;;43.92;20.35;;;16.60;99.90;;;;;;4148346;28;20038;-81
2022/09/12 08:20:55;;;;;;;46.15;20.45;;;16.70;99.90;;;;;;4148475;28;20037;-81
2022/09/12 08:22:56;;;;;;;45.88;21.33;;;16.70;99.90;;;;;;4148041;28;20480;-81
2022/09/12 08:24:57;;;;;;;43.88;19.45;;;16.70;99.90;;;;;;4146536;28;20045;-81
2022/09/12 08:26:58;;;;;;;42.75;20.63;;;16.70;99.90;;;;;;4147623;28;20061;-81
2022/09/12 08:28:59;;;;;;;38.40;18.52;;;16.80;99.90;;;;;;4147321;28;20057;-80
2022/09/12 08:31:05;;;;;;;39.13;20.15;;;16.80;99.90;;;;;;4147586;28;20117;-81
2022/09/12 08:33:06;;;;;;;42.20;19.27;;;16.80;99.90;;;;;;4147609;28;20619;-81
2022/09/12 08:35:07;;;;;;;40.20;18.63;;;16.90;99.90;;;;;;4148091;28;20052;-80
2022/09/12 08:37:08;;;;;;;43.20;18.77;;;16.90;99.90;;;;;;4148186;28;20046;-81
2022/09/12 08:39:11;;;;;;;44.42;19.75;;;17.00;99.90;;;;;;4148141;28;20046;-82
2022/09/12 08:41:29;;;;;;;40.17;18.60;;;17.10;99.90;;;;;;4147675;28;20091;-81
2022/09/12 08:43:56;;;;;;;33.20;18.55;;;17.20;99.90;;;;;;4130413;28;20424;-81
2022/09/12 08:46:19;;;;;;;37.08;18.40;;;17.30;99.90;;;;;;4137012;28;20058;-81
2022/09/12 08:48:20;;;;;;;40.47;19.33;;;17.40;99.90;;;;;;4147536;28;20588;-82
2022/09/12 08:50:21;;;;;;;38.92;18.55;;;17.50;99.90;;;;;;4147549;28;20107;-82
2022/09/12 08:53:20;;;;;;;35.38;17.50;;;17.70;99.90;;;;;;4147438;28;20376;-82
2022/09/12 08:55:40;;;;;;;;;;;17.90;99.90;;;;;;4108204;28;20579;-82
2022/09/12 08:57:40;;;;;;;37.28;16.95;;;18.00;99.90;;;;;;4146947;28;19921;-82
2022/09/12 08:59:43;;;;;;;37.13;17.65;;;18.00;99.90;;;;;;4147503;28;20045;-81
2022/09/12 09:01:44;;;;;;;31.77;17.02;;;18.00;99.90;;;;;;4147475;28;20050;-82
2022/09/12 09:03:57;;;;;;;35.60;17.35;;;18.00;99.90;;;;;;4147453;28;20049;-81
2022/09/12 09:06:02;;;;;;;36.50;16.80;;;18.00;99.90;;;;;;4147292;28;20076;-81
2022/09/12 09:08:31;;;;;;;33.28;16.52;;;18.00;99.90;;;;;;4147468;28;20130;-81
2022/09/12 09:10:35;;;;;;;32.05;15.95;;;18.10;99.90;;;;;;4146940;28;20555;-81
2022/09/12 09:12:54;;;;;;;32.08;17.00;;;18.10;99.90;;;;;;4147398;28;20085;-81
2022/09/12 09:15:00;;;;;;;29.70;15.45;;;18.20;99.90;;;;;;4129900;28;20053;-81
2022/09/12 09:17:02;;;;;;;32.42;15.77;;;18.30;99.90;;;;;;4146654;28;20057;-81
2022/09/12 09:19:12;;;;;;;32.72;15.88;;;18.40;99.90;;;;;;4129975;28;20050;-81
2022/09/12 09:21:30;;;;;;;31.92;15.38;;;18.50;99.90;;;;;;4146589;28;20050;-81
2022/09/12 09:23:41;;;;;;;30.92;16.13;;;18.60;99.90;;;;;;4147100;28;20092;-82
2022/09/12 09:26:08;;;;;;;29.98;15.25;;;18.60;99.90;;;;;;4147241;28;20053;-81
2022/09/12 09:28:29;;;;;;;33.20;16.42;;;18.80;99.90;;;;;;4141949;28;20064;-82
2022/09/12 09:30:30;;;;;;;29.23;15.63;;;19.10;99.90;;;;;;4128959;28;20054;-82
2022/09/12 09:32:36;;;;;;;33.30;16.25;;;19.30;99.90;;;;;;4149696;28;20121;-81
2022/09/12 09:34:38;;;;;;;31.60;15.25;;;19.40;99.80;;;;;;4149018;28;20116;-82
2022/09/12 09:37:02;;;;;;;32.03;15.05;;;19.60;99.50;;;;;;4150221;28;20038;-82
2022/09/12 09:39:13;;;;;;;31.15;16.08;;;19.80;98.70;;;;;;4149748;28;20858;-79
2022/09/12 09:41:36;;;;;;;34.20;15.68;;;20.00;98.80;;;;;;4149759;28;20099;-79
2022/09/12 09:43:37;;;;;;;31.80;15.27;;;20.00;98.60;;;;;;4149727;28;20088;-79
2022/09/12 09:45:40;;;;;;;29.20;14.25;;;20.30;98.40;;;;;;4148990;28;20514;-82
2022/09/12 09:47:47;;;;;;;29.58;15.30;;;20.70;98.00;;;;;;4149560;28;20050;-80
2022/09/12 09:49:48;;;;;;;27.83;14.20;;;21.10;97.40;;;;;;4149480;28;20042;-80
2022/09/12 09:51:49;;;;;;;26.95;13.85;;;21.50;96.90;;;;;;4149523;28;20500;-80
2022/09/12 09:54:00;;;;;;;30.40;13.45;;;21.90;96.20;;;;;;4149614;28;20050;-81
2022/09/12 09:56:08;;;;;;;30.33;14.23;;;22.20;95.90;;;;;;4149169;28;20045;-81
2022/09/12 09:58:09;;;;;;;26.45;13.82;;;22.30;95.50;;;;;;4132381;28;20134;-82
2022/09/12 10:00:29;;;;;;;24.83;13.48;;;22.30;95.30;;;;;;4150027;28;20057;-80
2022/09/12 10:02:30;;;;;;;30.17;14.07;;;22.20;94.70;;;;;;4148700;28;20149;-80
2022/09/12 10:04:38;;;;;;;24.50;12.85;;;22.30;95.30;;;;;;4149766;28;20076;-80
2022/09/12 10:06:39;;;;;;;28.60;14.68;;;22.40;94.90;;;;;;4132367;28;20046;-80
2022/09/12 10:08:40;;;;;;;29.67;14.25;;;22.30;94.70;;;;;;4150332;28;20053;-80
2022/09/12 10:10:53;;;;;;;27.02;14.18;;;22.50;94.50;;;;;;4149582;28;20549;-81
2022/09/12 10:13:27;;;;;;;25.60;13.45;;;22.60;94.10;;;;;;4148832;28;20109;-80
2022/09/12 10:15:29;;;;;;;32.00;13.73;;;22.90;93.40;;;;;;4149710;28;20046;-80
2022/09/12 10:17:45;;;;;;;22.65;11.93;;;23.20;93.80;;;;;;4150126;28;20073;-80
2022/09/12 10:19:46;;;;;;;25.83;13.27;;;23.60;93.40;;;;;;4149554;28;20046;-79
2022/09/12 10:21:51;;;;;;;23.08;12.45;;;23.90;92.50;;;;;;4149893;28;20544;-79
2022/09/12 10:24:02;;;;;;;25.92;12.68;;;24.30;92.40;;;;;;4149569;28;20041;-79
2022/09/12 10:26:09;;;;;;;23.48;13.95;;;24.10;91.40;;;;;;4149785;28;20400;-79
2022/09/12 10:28:22;;;;;;;22.67;13.30;;;23.80;91.40;;;;;;4149844;28;20068;-79
2022/09/12 10:30:26;;;;;;;26.02;12.55;;;23.70;90.60;;;;;;4149981;28;20045;-80
2022/09/12 10:32:52;;;;;;;25.10;13.00;;;23.80;90.80;;;;;;4148353;28;20042;-80
2022/09/12 10:34:56;;;;;;;23.88;12.43;;;23.90;89.50;;;;;;4148859;28;20092;-80
2022/09/12 10:37:04;;;;;;;26.77;11.68;;;24.10;90.40;;;;;;4148786;28;20547;-80
2022/09/12 10:39:06;;;;;;;23.88;12.57;;;24.10;88.60;;;;;;4148846;28;20113;-80
2022/09/12 10:41:10;;;;;;;23.00;12.05;;;24.00;88.30;;;;;;4148216;28;20046;-80